Airfield :
LOGIN :

Register | Disclaimer

   EN    FR    IT 

 










Legend :    VFR   Marginal VFR   IFR   Intensive IFR   Very Intensive IFR
Visi :
Ceiling :
>= 8 km
>= 3000ft
5 to 8 km
1000 to 3000 ft
1500m to 5 km
500 to 1000 ft
800 to 1500m
200 to 500 ft
< 800m
< 200 ft
Symbols :   Thunderstorms  Fog  Heavy snow  Heavy precipitations  Wind > 20 kt
SIGMETs :     Misc.  Thunderstorms  Icing  Turbulence  Mountain Waves  Volcanic Ashes







- Airport Elevation : 768 ft
- IATA code : MXP


LIMC - Milano Malpensa

CURRENT METAR :
  • 161250Z 25005KT 210V290 8000 NSC 14/01 Q1031 NOSIG

EXPIRED METARs :
  • 161220Z 25005KT 210V290 CAVOK 14/01 Q1031 NOSIG
  • 161150Z 22005KT 190V290 CAVOK 14/01 Q1031 NOSIG
  • 161120Z 24006KT 200V270 CAVOK 13/01 Q1032 NOSIG
  • 161050Z 27003KT 210V330 CAVOK 12/02 Q1032 NOSIG
  • 161020Z 30003KT 240V350 CAVOK 11/01 Q1032 NOSIG
  • 160950Z 33005KT 290V350 CAVOK 10/01 Q1032 NOSIG

TAF TAF LIMC
Valid from the 16 at 12:00 until the 17 at 18:00 UTC


161100Z 1612/1718 VRB05KT CAVOK
TEMPO 1700/1707 3000 BCFG
No reported NOTAMs for that airfield.



MET'MAP, your aeronautical weather chart ! - Copyright ORBIFLY December 2007 - Disclaimer

ORBIFLY MET'MAP TEAM :

Programming & Development : Alexandra Zaïnal
Concept & Development : Baudouin d'Aumeries
Co-Development & Prog : Marc-Olivier Méhu
Technical & hardware support : Manuel Goepfert

Contact : metmap@orbifly.com




SOURCES & CREDITS :

   NOAA